Time;durP1;ratioP1;P1;durP2;ratioP2;P2;SDS_P1;SDS_P2;PMS_P1;PMS_P2;Temp;Humidity;BMP_temperature;BMP_pressure;BME280_temperature;BME280_humidity;BME280_pressure;Samples;Min_cycle;Max_cycle;Signal;HPM_P1;HPM_P2
2021/01/20 00:00:36;;;;;;;15.43;10.10;;;;;;;4.80;84.31;99134.13;5084085;28;20458;-62
2021/01/20 00:03:03;;;;;;;10.93;8.17;;;;;;;4.82;83.69;99134.00;5083843;28;20444;-61
2021/01/20 00:05:29;;;;;;;15.53;9.00;;;;;;;4.75;84.43;99133.69;5084212;28;20459;-61
2021/01/20 00:07:55;;;;;;;10.40;8.83;;;;;;;4.85;83.65;99123.97;5083043;28;20452;-62
2021/01/20 00:10:21;;;;;;;11.97;8.80;;;;;;;4.75;84.82;99122.25;5083644;28;20503;-62
2021/01/20 00:12:48;;;;;;;10.50;9.40;;;;;;;4.76;83.71;99129.25;5083855;28;20444;-61
2021/01/20 00:15:17;;;;;;;11.73;7.27;;;;;;;4.76;84.25;99127.41;5083665;28;20488;-62
2021/01/20 00:17:43;;;;;;;8.47;6.90;;;;;;;4.75;83.80;99138.97;5083574;28;20486;-62
2021/01/20 00:20:11;;;;;;;8.60;7.07;;;;;;;4.73;84.18;99138.28;5083487;28;20452;-61
2021/01/20 00:22:37;;;;;;;10.50;7.60;;;;;;;4.69;83.71;99152.75;5083106;28;20454;-62
2021/01/20 00:25:04;;;;;;;11.50;6.70;;;;;;;4.71;84.04;99138.41;5082014;28;20452;-62
2021/01/20 00:27:30;;;;;;;8.10;6.37;;;;;;;4.74;83.22;99128.50;5083553;28;20449;-64
2021/01/20 00:29:57;;;;;;;10.93;6.60;;;;;;;4.76;83.08;99127.41;5082871;28;20448;-61
2021/01/20 00:32:24;;;;;;;7.90;6.80;;;;;;;4.75;83.14;99127.56;5083149;28;20463;-62
2021/01/20 00:34:50;;;;;;;7.43;6.60;;;;;;;4.71;83.49;99116.38;5082867;28;21003;-62
2021/01/20 00:37:16;;;;;;;13.23;6.60;;;;;;;4.76;83.48;99116.84;5083604;28;20463;-62
2021/01/20 00:39:42;;;;;;;12.00;7.03;;;;;;;4.77;83.02;99126.44;5081968;28;20577;-62
2021/01/20 00:42:09;;;;;;;11.60;6.23;;;;;;;4.78;82.51;99117.53;5082883;28;20443;-62
2021/01/20 00:44:35;;;;;;;12.90;6.63;;;;;;;4.74;82.65;99104.69;5082867;28;20457;-62
2021/01/20 00:47:01;;;;;;;10.10;6.80;;;;;;;4.76;82.18;99116.00;5083267;28;20451;-62
2021/01/20 00:49:28;;;;;;;10.70;6.97;;;;;;;4.78;82.12;99111.41;5082821;28;20947;-62
2021/01/20 00:51:54;;;;;;;8.10;6.10;;;;;;;4.75;82.27;99103.72;5082714;28;20445;-62
2021/01/20 00:54:20;;;;;;;9.67;5.97;;;;;;;4.74;82.60;99100.25;5081510;28;20515;-62
2021/01/20 00:56:46;;;;;;;10.07;5.63;;;;;;;4.74;81.96;99084.34;5083460;28;20460;-62
2021/01/20 00:59:12;;;;;;;10.10;6.23;;;;;;;4.75;82.49;99101.06;5082714;28;20443;-62
2021/01/20 01:01:39;;;;;;;10.13;6.00;;;;;;;4.74;82.16;99073.75;5082651;28;20448;-62
2021/01/20 01:04:05;;;;;;;10.50;7.27;;;;;;;4.72;81.59;99083.63;5083113;28;20483;-62
2021/01/20 01:06:32;;;;;;;7.23;6.20;;;;;;;4.76;81.72;99078.94;5082681;28;20471;-62
2021/01/20 01:08:58;;;;;;;9.30;5.93;;;;;;;4.70;81.74;99082.91;5081947;28;20483;-62
2021/01/20 01:11:24;;;;;;;9.37;6.43;;;;;;;4.69;82.13;99071.50;5082679;28;20471;-62
2021/01/20 01:13:50;;;;;;;13.70;5.77;;;;;;;4.65;82.16;99058.66;5082667;28;20515;-62
2021/01/20 01:16:16;;;;;;;7.90;5.57;;;;;;;4.61;82.07;99073.13;5081611;28;20455;-62
2021/01/20 01:18:43;;;;;;;8.73;6.20;;;;;;;4.62;82.08;99064.22;5082614;28;20440;-62
2021/01/20 01:21:09;;;;;;;8.87;6.00;;;;;;;4.56;82.29;99081.47;5082494;28;20459;-62
2021/01/20 01:23:36;;;;;;;10.60;5.47;;;;;;;4.53;82.36;99077.28;5081588;28;20513;-62
2021/01/20 01:26:02;;;;;;;8.67;5.63;;;;;;;4.55;82.42;99060.41;5082348;28;21084;-62
2021/01/20 01:28:28;;;;;;;9.20;5.30;;;;;;;4.55;82.32;99069.22;5082603;28;20444;-62
2021/01/20 01:30:54;;;;;;;6.07;5.07;;;;;;;4.51;81.91;99066.00;5082446;28;20471;-62
2021/01/20 01:33:20;;;;;;;7.17;5.50;;;;;;;4.51;82.28;99059.84;5082400;28;20464;-62
2021/01/20 01:35:47;;;;;;;7.87;4.80;;;;;;;4.51;82.17;99058.06;5082007;28;20448;-62
2021/01/20 01:38:13;;;;;;;6.13;4.47;;;;;;;4.48;82.37;99058.31;5062072;28;20456;-62
2021/01/20 01:40:40;;;;;;;6.67;4.13;;;;;;;4.49;82.20;99054.66;5062952;28;20480;-63
2021/01/20 01:43:06;;;;;;;7.40;4.03;;;;;;;4.46;81.87;99056.75;5062509;28;20457;-62
2021/01/20 01:45:32;;;;;;;5.40;3.87;;;;;;;4.39;81.62;99051.13;5076291;28;20448;-62
2021/01/20 01:47:58;;;;;;;5.87;4.07;;;;;;;4.33;82.21;99055.16;5082302;28;20805;-62
2021/01/20 01:50:24;;;;;;;8.80;4.33;;;;;;;4.37;82.16;99049.59;5081658;28;20555;-63
2021/01/20 01:52:51;;;;;;;8.70;4.03;;;;;;;4.44;81.90;99043.63;5081354;28;20487;-62
2021/01/20 01:55:17;;;;;;;7.30;4.07;;;;;;;4.36;81.97;99047.91;5081223;28;20908;-62
2021/01/20 01:57:44;;;;;;;8.87;4.73;;;;;;;4.32;82.21;99042.91;5081956;28;20436;-62
2021/01/20 02:00:11;;;;;;;6.27;3.93;;;;;;;4.26;82.45;99048.69;5081373;28;20483;-62
2021/01/20 02:02:38;;;;;;;7.17;4.60;;;;;;;4.26;82.25;99040.75;5081482;28;20444;-62
2021/01/20 02:05:05;;;;;;;4.50;3.77;;;;;;;4.24;82.21;99039.22;5080649;28;20471;-62
2021/01/20 02:07:31;;;;;;;8.27;4.47;;;;;;;4.14;82.00;99040.00;5081694;28;20587;-62
2021/01/20 02:09:59;;;;;;;9.63;4.57;;;;;;;4.13;82.33;99029.53;5081463;28;20483;-62
2021/01/20 02:12:50;;;;;;;5.90;4.20;;;;;;;4.11;82.29;99032.34;5081919;28;20432;-62
2021/01/20 02:15:20;;;;;;;10.37;4.63;;;;;;;4.14;81.52;99025.94;5081619;28;20488;-62
2021/01/20 02:17:49;;;;;;;5.20;4.17;;;;;;;4.15;82.19;99027.63;5081695;28;21025;-62
2021/01/20 02:20:41;;;;;;;5.40;4.90;;;;;;;4.13;81.60;99022.47;5081109;28;20451;-62
2021/01/20 02:23:11;;;;;;;5.50;3.53;;;;;;;4.08;81.70;99029.09;5080263;28;20444;-62
2021/01/20 02:25:54;;;;;;;6.83;4.17;;;;;;;4.07;81.86;99019.50;5080915;28;20462;-62
2021/01/20 02:28:22;;;;;;;6.10;4.10;;;;;;;4.14;81.44;99025.94;5081221;28;20792;-63
2021/01/20 02:30:49;;;;;;;7.80;4.43;;;;;;;4.03;81.86;99025.97;5080819;28;20459;-63
2021/01/20 02:33:23;;;;;;;10.90;3.90;;;;;;;4.12;81.29;99025.22;5081023;28;20469;-62
2021/01/20 02:35:52;;;;;;;4.17;3.77;;;;;;;4.13;81.02;99024.25;5081043;28;20514;-63
2021/01/20 02:38:19;;;;;;;6.97;3.57;;;;;;;4.11;81.12;99019.09;5080950;28;20486;-63
2021/01/20 02:40:45;;;;;;;9.37;4.67;;;;;;;4.10;80.61;99017.41;5081114;28;20487;-63
2021/01/20 02:43:11;;;;;;;5.17;3.60;;;;;;;4.12;81.16;99019.94;5081176;28;20534;-62
2021/01/20 02:45:38;;;;;;;4.17;3.50;;;;;;;4.09;80.41;99017.53;5080691;28;20492;-63
2021/01/20 02:48:06;;;;;;;6.40;3.37;;;;;;;4.06;80.42;99023.94;5081222;28;20975;-63
2021/01/20 02:50:32;;;;;;;10.90;3.50;;;;;;;4.06;80.41;99021.31;5085018;28;20456;-63
2021/01/20 02:53:02;;;;;;;4.73;2.97;;;;;;;4.03;80.59;99025.97;5084394;28;20456;-63
2021/01/20 02:55:29;;;;;;;6.60;3.90;;;;;;;4.00;80.64;99010.41;5084559;28;20523;-62
2021/01/20 02:57:58;;;;;;;5.10;3.83;;;;;;;3.99;80.44;99006.06;5085766;28;20436;-62
2021/01/20 03:00:25;;;;;;;8.60;3.70;;;;;;;4.01;80.32;99009.41;5084848;28;20479;-63
2021/01/20 03:02:53;;;;;;;8.30;4.40;;;;;;;4.08;79.99;99019.38;5085155;28;20439;-63
2021/01/20 03:05:21;;;;;;;8.73;3.60;;;;;;;4.00;80.00;99005.94;5084536;28;20459;-63
2021/01/20 03:07:47;;;;;;;7.60;3.90;;;;;;;4.10;79.38;99006.00;5084698;28;20506;-62
2021/01/20 03:10:14;;;;;;;5.17;3.80;;;;;;;4.14;79.58;98997.66;5084667;28;20480;-62
2021/01/20 03:12:42;;;;;;;6.90;4.50;;;;;;;4.18;78.71;99000.88;5084768;28;20500;-63
2021/01/20 03:15:12;;;;;;;6.77;4.33;;;;;;;4.23;78.90;98998.69;5084600;28;21007;-62
2021/01/20 03:17:38;;;;;;;6.83;4.27;;;;;;;4.15;79.74;98996.72;5085205;28;20443;-62
2021/01/20 03:20:06;;;;;;;9.43;4.87;;;;;;;4.25;78.21;98993.28;5084447;28;20448;-62
2021/01/20 03:22:33;;;;;;;6.27;4.17;;;;;;;4.27;78.47;98986.03;5083689;28;20440;-62
2021/01/20 03:24:59;;;;;;;7.93;4.30;;;;;;;4.30;78.53;98977.84;5084922;28;20499;-62
2021/01/20 03:27:25;;;;;;;7.07;4.77;;;;;;;4.35;78.32;98973.00;5084750;28;20482;-62
2021/01/20 03:29:51;;;;;;;7.53;5.27;;;;;;;4.36;77.71;98974.69;5084122;28;20522;-62
2021/01/20 03:32:17;;;;;;;11.47;4.90;;;;;;;4.45;77.27;98983.63;5083830;28;20451;-62
2021/01/20 03:34:43;;;;;;;6.90;5.53;;;;;;;4.41;77.64;98961.03;5084445;28;20526;-63
2021/01/20 03:37:10;;;;;;;6.13;4.70;;;;;;;4.49;77.60;98962.03;5084600;28;20466;-62
2021/01/20 03:39:37;;;;;;;5.57;4.30;;;;;;;4.52;77.04;98959.13;5083590;28;20557;-62
2021/01/20 03:42:04;;;;;;;6.13;4.20;;;;;;;4.49;77.46;98953.28;5084626;28;20502;-62
2021/01/20 03:44:30;;;;;;;7.00;5.20;;;;;;;4.51;76.90;98954.84;5084747;28;20968;-62
2021/01/20 03:46:56;;;;;;;7.37;5.40;;;;;;;4.60;76.89;98949.69;5084006;28;20467;-62
2021/01/20 03:49:22;;;;;;;8.83;4.77;;;;;;;4.67;76.93;98956.09;5084239;28;20454;-62
2021/01/20 03:51:48;;;;;;;8.00;4.90;;;;;;;4.71;76.57;98955.72;5084418;28;20925;-62
2021/01/20 03:54:15;;;;;;;7.83;5.03;;;;;;;4.68;77.11;98945.38;5083148;28;20515;-63
2021/01/20 03:56:42;;;;;;;7.70;4.40;;;;;;;4.81;76.43;98944.31;5083958;28;20962;-62
2021/01/20 03:59:08;;;;;;;7.00;4.30;;;;;;;4.74;76.91;98956.41;5084100;28;20428;-62
2021/01/20 04:01:35;;;;;;;5.73;4.40;;;;;;;4.75;76.73;98950.16;5083303;28;20439;-62
2021/01/20 04:04:01;;;;;;;6.43;4.70;;;;;;;4.83;76.92;98951.16;5084580;28;20440;-62
2021/01/20 04:06:27;;;;;;;6.17;4.83;;;;;;;4.88;76.29;98943.63;5083778;28;20496;-62
2021/01/20 04:08:53;;;;;;;5.87;4.40;;;;;;;4.83;75.93;98943.22;5083481;28;20447;-62
2021/01/20 04:11:20;;;;;;;6.63;4.13;;;;;;;4.88;76.66;98946.28;5083296;28;20514;-62
2021/01/20 04:13:47;;;;;;;7.57;4.03;;;;;;;4.75;77.03;98948.34;5084017;28;20761;-62
2021/01/20 04:16:14;;;;;;;4.83;3.67;;;;;;;4.77;76.87;98946.38;5083279;28;20460;-62
2021/01/20 04:18:40;;;;;;;7.50;4.60;;;;;;;4.73;76.95;98950.28;5083937;28;20471;-62
2021/01/20 04:21:07;;;;;;;5.73;4.10;;;;;;;4.75;76.65;98945.69;5083449;28;20451;-62
2021/01/20 04:23:36;;;;;;;5.90;4.80;;;;;;;4.76;77.25;98946.53;5082719;28;20899;-62
2021/01/20 04:26:02;;;;;;;5.63;4.40;;;;;;;4.83;76.15;98947.69;5083782;28;20444;-62
2021/01/20 04:28:29;;;;;;;6.30;4.10;;;;;;;4.72;76.72;98957.41;5083508;28;20464;-62
2021/01/20 04:30:56;;;;;;;5.80;3.73;;;;;;;4.70;76.08;98947.91;5083590;28;20456;-63
2021/01/20 04:33:22;;;;;;;3.37;2.80;;;;;;;4.78;75.94;98945.41;5083261;28;20497;-62
2021/01/20 04:35:48;;;;;;;5.80;4.10;;;;;;;4.83;75.60;98939.72;5083273;28;20455;-62
2021/01/20 04:38:14;;;;;;;6.23;4.23;;;;;;;4.78;75.78;98941.94;5082293;28;20484;-62
2021/01/20 04:40:40;;;;;;;7.27;4.37;;;;;;;4.77;75.96;98941.09;5083363;28;20982;-62
2021/01/20 04:43:06;;;;;;;4.73;3.93;;;;;;;4.74;75.45;98936.09;5083163;28;20440;-62
2021/01/20 04:45:33;;;;;;;7.10;4.30;;;;;;;4.79;76.14;98931.22;5083358;28;20537;-62
2021/01/20 04:48:00;;;;;;;7.20;3.80;;;;;;;4.84;75.56;98942.25;5082732;28;20444;-62
2021/01/20 04:50:27;;;;;;;6.10;4.00;;;;;;;4.89;75.43;98933.88;5082953;28;20695;-62
2021/01/20 04:52:55;;;;;;;8.03;3.60;;;;;;;4.83;75.35;98935.25;5082020;28;21006;-62
2021/01/20 04:55:21;;;;;;;6.20;3.77;;;;;;;4.84;75.91;98929.00;5082419;28;20484;-63
2021/01/20 04:57:47;;;;;;;5.87;3.13;;;;;;;4.86;74.98;98916.47;5082392;28;20475;-62
2021/01/20 05:00:14;;;;;;;5.67;3.30;;;;;;;4.85;75.56;98928.00;5082854;28;20463;-61
2021/01/20 05:02:42;;;;;;;6.07;3.50;;;;;;;4.84;75.52;98926.34;5082659;28;20464;-62
2021/01/20 05:05:11;;;;;;;5.30;3.50;;;;;;;4.85;75.26;98930.66;5082629;28;20443;-62
2021/01/20 05:07:37;;;;;;;7.40;4.40;;;;;;;4.80;75.59;98919.63;5081673;28;20452;-62
2021/01/20 05:10:05;;;;;;;5.47;4.03;;;;;;;4.84;75.69;98912.25;5081677;28;20495;-64
2021/01/20 05:12:35;;;;;;;5.37;4.20;;;;;;;4.85;75.84;98906.00;5078707;28;20900;-61
2021/01/20 05:15:03;;;;;;;4.67;3.87;;;;;;;4.92;75.88;98908.94;5082365;28;20486;-61
2021/01/20 05:17:30;;;;;;;5.70;3.30;;;;;;;4.89;75.75;98908.22;5082402;28;20444;-63
2021/01/20 05:19:56;;;;;;;8.10;4.47;;;;;;;4.85;75.59;98896.22;5081921;28;20448;-63
2021/01/20 05:22:23;;;;;;;5.13;4.10;;;;;;;4.90;76.01;98904.59;5082178;28;20447;-62
2021/01/20 05:24:57;;;;;;;6.30;3.90;;;;;;;4.89;76.66;98897.63;5081238;28;20536;-63
2021/01/20 05:27:26;;;;;;;9.90;5.00;;;;;;;4.87;76.42;98885.50;5082618;28;20452;-62
2021/01/20 05:30:05;;;;;;;9.03;4.07;;;;;;;4.94;75.99;98888.44;5079009;28;20473;-63
2021/01/20 05:32:31;;;;;;;4.20;3.40;;;;;;;5.00;76.14;98895.81;5069296;28;20444;-62
2021/01/20 05:34:58;;;;;;;4.33;3.50;;;;;;;4.98;76.29;98890.69;5079660;28;20480;-63
2021/01/20 05:37:26;;;;;;;4.80;3.60;;;;;;;4.87;76.87;98882.88;5081324;28;20451;-62
2021/01/20 05:40:06;;;;;;;4.00;3.60;;;;;;;4.89;76.92;98883.56;5080154;28;20455;-63
2021/01/20 05:42:42;;;;;;;4.73;4.30;;;;;;;4.94;76.88;98872.56;5081411;28;20455;-63
2021/01/20 05:45:10;;;;;;;8.90;3.50;;;;;;;4.95;77.00;98871.56;5080809;28;20451;-62
2021/01/20 05:47:36;;;;;;;5.20;3.63;;;;;;;5.02;76.73;98870.06;5080023;28;20496;-63
2021/01/20 05:50:05;;;;;;;6.50;4.00;;;;;;;5.05;76.61;98851.22;5079996;28;20809;-62
2021/01/20 05:52:33;;;;;;;5.50;3.47;;;;;;;5.09;76.83;98858.75;5079900;28;20539;-62
2021/01/20 05:54:59;;;;;;;5.00;3.70;;;;;;;5.16;76.64;98850.25;5079880;28;20487;-63
2021/01/20 05:57:28;;;;;;;5.80;3.37;;;;;;;5.07;77.06;98847.47;5080808;28;20444;-63
2021/01/20 05:59:54;;;;;;;4.17;3.53;;;;;;;5.19;76.79;98840.22;5077040;28;20460;-63
2021/01/20 06:02:21;;;;;;;5.40;3.17;;;;;;;5.28;76.57;98847.31;5079691;28;20459;-63
2021/01/20 06:04:48;;;;;;;3.33;3.03;;;;;;;5.22;76.83;98834.59;5081352;28;20511;-63
2021/01/20 06:07:15;;;;;;;6.10;4.00;;;;;;;5.31;76.52;98837.41;5080601;28;20462;-63
2021/01/20 06:09:43;;;;;;;4.90;3.40;;;;;;;5.30;76.87;98833.09;5079185;28;20506;-63
2021/01/20 06:12:10;;;;;;;6.03;3.90;;;;;;;5.38;75.95;98820.81;5081044;28;20513;-63
2021/01/20 06:14:37;;;;;;;4.23;2.87;;;;;;;5.41;75.77;98828.44;5080510;28;20515;-62
2021/01/20 06:17:11;;;;;;;3.67;3.10;;;;;;;5.44;76.09;98817.56;5080076;28;20451;-63
2021/01/20 06:19:38;;;;;;;6.20;3.20;;;;;;;5.42;76.08;98818.69;5080233;28;20515;-62
2021/01/20 06:22:05;;;;;;;4.30;3.50;;;;;;;5.63;74.84;98805.25;5080822;28;20448;-62
2021/01/20 06:24:39;;;;;;;3.77;2.47;;;;;;;5.72;74.61;98819.44;5078022;28;20487;-62
2021/01/20 06:27:12;;;;;;;3.80;2.90;;;;;;;5.79;74.15;98816.06;5079949;28;20622;-62
2021/01/20 06:29:44;;;;;;;3.43;3.10;;;;;;;5.80;74.11;98811.63;5080278;28;20492;-62
2021/01/20 06:32:16;;;;;;;3.57;3.07;;;;;;;5.88;73.42;98808.22;5078865;28;20455;-62
2021/01/20 06:34:49;;;;;;;3.20;2.90;;;;;;;5.89;73.02;98805.41;5080344;28;20476;-63
2021/01/20 06:37:40;;;;;;;5.67;3.20;;;;;;;5.80;73.30;98799.19;5079961;28;20493;-63
2021/01/20 06:40:38;;;;;;;2.90;2.50;;;;;;;5.85;72.69;98794.28;5079389;28;20460;-62
2021/01/20 06:43:32;;;;;;;3.30;3.00;;;;;;;5.82;72.63;98801.69;5080889;28;20513;-62
2021/01/20 06:46:14;;;;;;;3.60;3.30;;;;;;;5.77;73.03;98804.75;5077284;28;20448;-60
2021/01/20 06:49:12;;;;;;;3.80;2.90;;;;;;;5.79;72.16;98794.00;5074854;28;20440;-60
2021/01/20 06:51:39;;;;;;;4.27;2.93;;;;;;;5.79;71.76;98794.00;5075324;28;20448;-62
2021/01/20 06:54:13;;;;;;;3.10;2.80;;;;;;;5.76;72.41;98804.91;5077535;28;20660;-62
2021/01/20 06:56:47;;;;;;;3.70;3.37;;;;;;;5.73;72.55;98802.53;5078065;28;20456;-61
2021/01/20 06:59:19;;;;;;;4.53;3.07;;;;;;;5.63;72.71;98798.13;5079413;28;20534;-62
2021/01/20 07:02:13;;;;;;;4.83;3.17;;;;;;;5.75;71.26;98820.00;5078152;28;20456;-60
2021/01/20 07:04:55;;;;;;;3.40;3.10;;;;;;;5.72;71.73;98795.59;5079769;28;20440;-62
2021/01/20 07:08:00;;;;;;;3.83;2.97;;;;;;;5.76;70.84;98794.31;5078834;28;20460;-63
2021/01/20 07:10:31;;;;;;;4.50;3.47;;;;;;;5.71;69.91;98791.25;5072729;28;20487;-61
2021/01/20 07:13:18;;;;;;;3.47;2.83;;;;;;;5.81;68.46;98792.03;5072737;28;20452;-61
2021/01/20 07:15:53;;;;;;;2.60;2.40;;;;;;;5.81;67.92;98797.34;5065224;28;20487;-61
2021/01/20 07:18:21;;;;;;;3.40;3.00;;;;;;;5.96;67.55;98790.63;5077133;28;20435;-63
2021/01/20 07:20:48;;;;;;;5.23;2.80;;;;;;;5.99;66.38;98798.28;5076113;28;20475;-66
2021/01/20 07:23:14;;;;;;;3.37;2.97;;;;;;;6.06;65.87;98811.81;5073840;28;20906;-63
2021/01/20 07:25:40;;;;;;;3.73;3.10;;;;;;;6.04;65.93;98803.13;5076190;28;20478;-63
2021/01/20 07:28:07;;;;;;;4.27;3.07;;;;;;;6.08;66.17;98806.34;5077043;28;20424;-65
2021/01/20 07:30:34;;;;;;;4.03;2.80;;;;;;;6.15;65.55;98799.47;5076158;28;20463;-63
2021/01/20 07:33:01;;;;;;;3.67;2.77;;;;;;;6.14;64.86;98793.31;5075533;28;20479;-63
2021/01/20 07:35:29;;;;;;;3.93;3.23;;;;;;;6.22;64.26;98805.84;5078442;28;20525;-63
2021/01/20 07:38:01;;;;;;;4.27;2.80;;;;;;;6.24;65.04;98808.38;5079870;28;20447;-63
2021/01/20 07:40:29;;;;;;;4.77;2.50;;;;;;;6.22;64.76;98800.53;5079887;28;20487;-63
2021/01/20 07:42:55;;;;;;;3.83;2.93;;;;;;;6.29;63.59;98804.28;5080892;28;20447;-63
2021/01/20 07:45:32;;;;;;;5.03;3.03;;;;;;;6.29;63.79;98803.44;5078146;28;21020;-62
2021/01/20 07:47:59;;;;;;;3.60;2.97;;;;;;;6.32;64.07;98792.50;5078232;28;20463;-63
2021/01/20 07:50:47;;;;;;;5.07;2.90;;;;;;;6.44;63.04;98811.72;5082666;28;20486;-63
2021/01/20 07:53:15;;;;;;;2.97;2.50;;;;;;;6.39;63.49;98798.91;5070064;28;20515;-63
2021/01/20 07:55:41;;;;;;;4.57;2.63;;;;;;;6.46;63.89;98804.44;5082606;28;20483;-63
2021/01/20 07:58:08;;;;;;;3.30;2.60;;;;;;;6.48;62.68;98805.97;5081764;28;20447;-62
2021/01/20 08:00:46;;;;;;;2.67;2.37;;;;;;;6.55;63.23;98806.22;5078294;28;20592;-61
2021/01/20 08:03:12;;;;;;;2.97;2.50;;;;;;;6.50;63.46;98808.47;5083060;28;20516;-62
2021/01/20 08:05:41;;;;;;;2.93;2.43;;;;;;;6.53;64.08;98809.00;5081776;28;20843;-63
2021/01/20 08:08:14;;;;;;;3.97;2.80;;;;;;;6.54;64.06;98805.34;5076345;28;20467;-63
2021/01/20 08:10:41;;;;;;;4.50;2.70;;;;;;;6.60;64.05;98804.75;5069280;28;20511;-62
2021/01/20 08:13:10;;;;;;;3.43;2.17;;;;;;;6.66;64.24;98816.59;5081826;28;20436;-63
2021/01/20 08:15:40;;;;;;;3.90;2.73;;;;;;;6.71;64.53;98822.28;5071244;28;20896;-64
2021/01/20 08:18:13;;;;;;;3.60;2.80;;;;;;;6.73;64.35;98822.97;5082171;28;20459;-64
2021/01/20 08:20:40;;;;;;;4.13;3.17;;;;;;;6.73;64.98;98822.97;5079077;28;20463;-64
2021/01/20 08:23:20;;;;;;;3.23;2.60;;;;;;;6.70;65.58;98817.13;5079206;28;20517;-64
2021/01/20 08:25:46;;;;;;;2.87;2.37;;;;;;;6.77;64.85;98812.88;5076217;28;20460;-65
2021/01/20 08:28:14;;;;;;;2.53;2.30;;;;;;;6.78;65.91;98820.69;5072180;28;20448;-64
2021/01/20 08:30:40;;;;;;;2.97;2.50;;;;;;;6.75;65.39;98822.81;5073776;28;20448;-63
2021/01/20 08:33:07;;;;;;;4.03;2.90;;;;;;;6.83;65.62;98819.44;5079851;28;20452;-64
2021/01/20 08:35:34;;;;;;;3.07;2.10;;;;;;;6.90;65.28;98833.75;5080810;28;20491;-63
2021/01/20 08:38:00;;;;;;;2.50;2.17;;;;;;;6.88;65.50;98817.97;5077578;28;20448;-66
2021/01/20 08:40:28;;;;;;;3.73;2.03;;;;;;;6.95;65.38;98805.75;5075143;28;20547;-65
2021/01/20 08:42:54;;;;;;;2.90;2.00;;;;;;;7.01;65.63;98817.56;5080674;28;20713;-65
2021/01/20 08:45:32;;;;;;;3.10;2.30;;;;;;;7.06;65.90;98815.28;5080688;28;20459;-61
2021/01/20 08:48:00;;;;;;;3.63;2.20;;;;;;;7.01;65.32;98814.09;5080316;28;20454;-64
2021/01/20 08:50:48;;;;;;;3.07;2.40;;;;;;;7.08;66.27;98818.66;5077395;28;20476;-62
2021/01/20 08:53:26;;;;;;;2.60;2.30;;;;;;;7.06;65.48;98817.94;5075602;28;20466;-62
2021/01/20 08:55:54;;;;;;;3.30;2.33;;;;;;;7.10;65.62;98823.78;5076580;28;20488;-62
2021/01/20 08:58:27;;;;;;;3.83;2.50;;;;;;;7.13;65.36;98820.84;5081367;28;20432;-62
2021/01/20 09:00:56;;;;;;;3.63;1.93;;;;;;;7.15;65.58;98826.81;5079805;28;20906;-63
2021/01/20 09:03:23;;;;;;;4.13;2.83;;;;;;;7.14;65.36;98820.69;5069296;28;20952;-63
2021/01/20 09:05:51;;;;;;;3.43;2.10;;;;;;;7.11;64.90;98821.00;5076183;28;20475;-64
2021/01/20 09:08:18;;;;;;;2.60;2.27;;;;;;;7.20;65.61;98819.22;5076852;28;20467;-65
2021/01/20 09:10:45;;;;;;;3.37;2.03;;;;;;;7.23;65.39;98823.41;5072841;28;20518;-65
2021/01/20 09:13:12;;;;;;;2.33;2.00;;;;;;;7.25;65.10;98821.44;5080078;28;20450;-66
2021/01/20 09:15:39;;;;;;;3.70;2.50;;;;;;;7.29;64.61;98815.66;5071901;28;20510;-65
2021/01/20 09:18:06;;;;;;;5.33;1.87;;;;;;;7.32;65.06;98815.34;5080021;28;20448;-64
2021/01/20 09:20:34;;;;;;;3.20;2.00;;;;;;;7.23;65.36;98812.78;5079259;28;20455;-64
2021/01/20 09:23:01;;;;;;;3.63;2.23;;;;;;;7.28;65.34;98813.16;5078606;28;20831;-64
2021/01/20 09:25:28;;;;;;;4.57;2.20;;;;;;;7.30;66.14;98809.34;5079349;28;20449;-64
2021/01/20 09:27:54;;;;;;;3.23;2.27;;;;;;;7.40;64.84;98819.88;5063635;28;20459;-64
2021/01/20 09:30:22;;;;;;;2.63;1.80;;;;;;;7.39;64.50;98820.88;5077181;28;20452;-64
2021/01/20 09:32:48;;;;;;;2.17;1.83;;;;;;;7.45;64.66;98817.59;5080105;28;20451;-64
2021/01/20 09:35:15;;;;;;;3.20;2.17;;;;;;;7.57;63.75;98814.66;5079621;28;20487;-65
2021/01/20 09:37:42;;;;;;;3.80;1.90;;;;;;;7.57;64.32;98804.88;5078465;28;20923;-63
2021/01/20 09:40:10;;;;;;;3.13;2.27;;;;;;;7.59;63.56;98808.22;5078228;28;20502;-63
2021/01/20 09:42:36;;;;;;;4.13;2.33;;;;;;;7.67;62.86;98813.59;5066291;28;20897;-64
2021/01/20 09:45:04;;;;;;;2.20;1.60;;;;;;;7.70;62.97;98794.63;5070015;28;20449;-63
2021/01/20 09:47:31;;;;;;;2.97;2.00;;;;;;;7.77;63.13;98800.16;5075958;28;20452;-63
2021/01/20 09:49:57;;;;;;;3.93;3.00;;;;;;;7.86;62.46;98796.56;5079891;28;20444;-64
2021/01/20 09:52:25;;;;;;;3.90;2.10;;;;;;;7.79;63.64;98792.84;5078327;28;20485;-64
2021/01/20 09:54:53;;;;;;;2.70;2.00;;;;;;;7.78;63.18;98782.34;5076073;28;20524;-64
2021/01/20 09:57:20;;;;;;;3.70;1.83;;;;;;;7.68;62.41;98793.13;5072975;28;21225;-64
2021/01/20 09:59:46;;;;;;;6.07;2.33;;;;;;;7.70;63.40;98805.28;5072270;28;20550;-64
2021/01/20 10:02:12;;;;;;;3.10;2.10;;;;;;;7.83;62.31;98804.84;5079804;28;20993;-65
2021/01/20 10:04:41;;;;;;;1.73;1.53;;;;;;;7.81;63.15;98798.00;5073609;28;20441;-65
2021/01/20 10:07:07;;;;;;;2.40;1.97;;;;;;;7.79;62.88;98806.16;5067932;28;20460;-66
2021/01/20 10:09:34;;;;;;;4.20;2.00;;;;;;;7.81;62.90;98808.66;5072075;28;20878;-66
2021/01/20 10:12:00;;;;;;;2.70;1.90;;;;;;;7.81;62.87;98804.19;5074690;28;20455;-66
2021/01/20 10:14:27;;;;;;;2.80;2.23;;;;;;;7.86;63.76;98796.56;5078534;28;20488;-65
2021/01/20 10:16:53;;;;;;;2.90;2.33;;;;;;;7.94;63.08;98797.59;5078747;28;20525;-66
2021/01/20 10:19:19;;;;;;;2.60;2.40;;;;;;;7.98;63.32;98799.75;5077021;28;20457;-66
2021/01/20 10:21:47;;;;;;;2.80;2.10;;;;;;;8.06;62.80;98788.31;5075211;28;20471;-66
2021/01/20 10:24:13;;;;;;;5.43;2.57;;;;;;;8.16;62.23;98793.50;5060648;28;20448;-65
2021/01/20 10:26:40;;;;;;;4.10;2.47;;;;;;;8.15;61.75;98771.38;5075269;28;20635;-65
2021/01/20 10:29:07;;;;;;;2.97;2.40;;;;;;;8.29;61.35;98770.75;5078353;28;20479;-65
2021/01/20 10:31:35;;;;;;;5.30;2.10;;;;;;;8.14;61.61;98766.22;5078219;28;20463;-65
2021/01/20 10:34:02;;;;;;;4.20;2.40;;;;;;;8.28;61.85;98766.44;5072861;28;20448;-65
2021/01/20 10:36:29;;;;;;;2.63;1.90;;;;;;;8.41;61.27;98762.47;5076989;28;20452;-65
2021/01/20 10:38:56;;;;;;;3.17;1.60;;;;;;;8.49;61.03;98775.84;5079155;28;20444;-65
2021/01/20 10:41:23;;;;;;;2.60;1.90;;;;;;;8.71;60.12;98769.03;5079120;28;20478;-64
2021/01/20 10:43:52;;;;;;;4.20;2.90;;;;;;;9.16;58.12;98757.03;5076360;28;20454;-65
2021/01/20 10:46:19;;;;;;;2.40;1.67;;;;;;;9.32;58.78;98761.53;5077728;28;20460;-66
2021/01/20 10:48:46;;;;;;;4.57;2.80;;;;;;;9.06;58.63;98753.69;5077755;28;20477;-64
2021/01/20 10:51:12;;;;;;;4.40;1.93;;;;;;;9.10;58.66;98746.22;5076679;28;20828;-65
2021/01/20 10:53:38;;;;;;;2.60;1.83;;;;;;;9.32;58.04;98742.00;5078180;28;20462;-64
2021/01/20 10:56:07;;;;;;;3.67;2.33;;;;;;;8.84;58.84;98733.91;5078744;28;20511;-65
2021/01/20 10:58:33;;;;;;;2.97;2.20;;;;;;;8.69;60.07;98724.91;5078670;28;20448;-65
2021/01/20 11:01:00;;;;;;;3.57;2.40;;;;;;;8.36;60.17;98722.19;5071866;28;20448;-65
2021/01/20 11:03:26;;;;;;;2.73;2.23;;;;;;;9.04;58.86;98719.25;5078806;28;20963;-65
2021/01/20 11:05:53;;;;;;;3.03;1.43;;;;;;;9.51;56.78;98714.13;5075272;28;20589;-65
2021/01/20 11:08:19;;;;;;;3.73;1.83;;;;;;;9.47;56.25;98707.47;5077525;28;20451;-65
2021/01/20 11:10:46;;;;;;;6.10;1.90;;;;;;;9.89;55.91;98701.78;5081462;28;20488;-65
2021/01/20 11:13:13;;;;;;;3.20;1.90;;;;;;;9.87;55.62;98703.81;5076481;28;20916;-65
2021/01/20 11:15:45;;;;;;;3.80;2.13;;;;;;;10.04;56.15;98703.75;5078583;28;21076;-66
2021/01/20 11:18:11;;;;;;;3.40;2.00;;;;;;;10.01;54.90;98710.25;5083040;28;20538;-65
2021/01/20 11:20:38;;;;;;;1.73;1.63;;;;;;;10.04;55.09;98699.22;5076607;28;20479;-66
2021/01/20 11:23:04;;;;;;;2.30;1.50;;;;;;;9.97;54.31;98696.41;5070635;28;20452;-65
2021/01/20 11:25:32;;;;;;;4.47;2.50;;;;;;;9.63;55.98;98693.25;5079135;28;20443;-65
2021/01/20 11:27:58;;;;;;;2.33;2.00;;;;;;;10.04;55.02;98693.06;5082083;28;20444;-65
2021/01/20 11:30:26;;;;;;;3.23;2.20;;;;;;;9.83;55.29;98689.16;5082142;28;20447;-65
2021/01/20 11:32:53;;;;;;;4.03;1.87;;;;;;;9.36;55.92;98682.00;5075851;28;20433;-65
2021/01/20 11:35:19;;;;;;;4.80;2.10;;;;;;;9.46;56.49;98689.78;5073367;28;20468;-65
2021/01/20 11:37:45;;;;;;;4.20;2.23;;;;;;;9.53;56.13;98678.28;5083104;28;20443;-61
2021/01/20 11:40:12;;;;;;;6.00;2.67;;;;;;;9.47;55.05;98662.13;5081647;28;20841;-62
2021/01/20 11:42:38;;;;;;;3.20;1.87;;;;;;;9.45;55.67;98670.28;5082077;28;20469;-62
2021/01/20 11:45:06;;;;;;;2.30;2.10;;;;;;;9.71;55.50;98669.19;5082171;28;20449;-62
2021/01/20 11:47:33;;;;;;;2.40;2.20;;;;;;;9.74;55.10;98667.00;5082587;28;20448;-62